sensor_id;sensor_type;location;lat;lon;timestamp;P1;durP1;ratioP1;P2;durP2;ratioP2
10201;SDS011;5143;42.584;23.164;2023-05-10T00:00:38;3.07;;;2.63;;
10201;SDS011;5143;42.584;23.164;2023-05-10T00:03:05;2.97;;;2.17;;
10201;SDS011;5143;42.584;23.164;2023-05-10T00:05:32;2.73;;;2.20;;
10201;SDS011;5143;42.584;23.164;2023-05-10T00:07:59;2.47;;;2.27;;
10201;SDS011;5143;42.584;23.164;2023-05-10T00:10:25;3.87;;;2.20;;
10201;SDS011;5143;42.584;23.164;2023-05-10T00:12:52;2.23;;;2.03;;
10201;SDS011;5143;42.584;23.164;2023-05-10T00:15:20;3.83;;;2.33;;
10201;SDS011;5143;42.584;23.164;2023-05-10T00:17:47;3.70;;;3.13;;
10201;SDS011;5143;42.584;23.164;2023-05-10T00:20:14;3.73;;;3.00;;
10201;SDS011;5143;42.584;23.164;2023-05-10T00:22:41;2.60;;;2.40;;
10201;SDS011;5143;42.584;23.164;2023-05-10T00:25:08;4.17;;;2.50;;
10201;SDS011;5143;42.584;23.164;2023-05-10T00:27:35;2.67;;;2.30;;
10201;SDS011;5143;42.584;23.164;2023-05-10T00:30:02;2.90;;;2.60;;
10201;SDS011;5143;42.584;23.164;2023-05-10T00:32:30;2.30;;;2.10;;
10201;SDS011;5143;42.584;23.164;2023-05-10T00:34:57;2.70;;;2.50;;
10201;SDS011;5143;42.584;23.164;2023-05-10T00:37:24;3.17;;;2.40;;
10201;SDS011;5143;42.584;23.164;2023-05-10T00:39:51;3.33;;;2.57;;
10201;SDS011;5143;42.584;23.164;2023-05-10T00:42:18;2.37;;;2.13;;
10201;SDS011;5143;42.584;23.164;2023-05-10T00:44:45;4.37;;;2.30;;
10201;SDS011;5143;42.584;23.164;2023-05-10T00:47:11;2.90;;;2.60;;
10201;SDS011;5143;42.584;23.164;2023-05-10T00:49:40;2.87;;;2.63;;
10201;SDS011;5143;42.584;23.164;2023-05-10T00:52:07;2.87;;;2.57;;
10201;SDS011;5143;42.584;23.164;2023-05-10T00:54:34;2.83;;;2.53;;
10201;SDS011;5143;42.584;23.164;2023-05-10T00:57:01;3.10;;;2.80;;
10201;SDS011;5143;42.584;23.164;2023-05-10T00:59:29;4.13;;;2.73;;
10201;SDS011;5143;42.584;23.164;2023-05-10T01:01:56;3.33;;;2.70;;
10201;SDS011;5143;42.584;23.164;2023-05-10T01:04:24;3.10;;;2.80;;
10201;SDS011;5143;42.584;23.164;2023-05-10T01:06:52;2.60;;;2.40;;
10201;SDS011;5143;42.584;23.164;2023-05-10T01:09:19;2.43;;;2.23;;
10201;SDS011;5143;42.584;23.164;2023-05-10T01:11:47;4.57;;;2.40;;
10201;SDS011;5143;42.584;23.164;2023-05-10T01:14:16;3.07;;;2.40;;
10201;SDS011;5143;42.584;23.164;2023-05-10T01:16:45;2.77;;;2.40;;
10201;SDS011;5143;42.584;23.164;2023-05-10T01:19:17;3.07;;;2.70;;
10201;SDS011;5143;42.584;23.164;2023-05-10T01:21:48;3.13;;;2.60;;
10201;SDS011;5143;42.584;23.164;2023-05-10T01:27:25;3.50;;;3.07;;
10201;SDS011;5143;42.584;23.164;2023-05-10T01:33:15;5.00;;;3.10;;
10201;SDS011;5143;42.584;23.164;2023-05-10T01:35:47;6.20;;;3.00;;
10201;SDS011;5143;42.584;23.164;2023-05-10T01:38:19;3.90;;;3.27;;
10201;SDS011;5143;42.584;23.164;2023-05-10T01:40:56;3.73;;;3.00;;
10201;SDS011;5143;42.584;23.164;2023-05-10T01:43:33;4.37;;;3.10;;
10201;SDS011;5143;42.584;23.164;2023-05-10T01:46:07;4.87;;;2.77;;
10201;SDS011;5143;42.584;23.164;2023-05-10T01:48:45;3.63;;;3.03;;
10201;SDS011;5143;42.584;23.164;2023-05-10T01:51:15;6.50;;;2.93;;
10201;SDS011;5143;42.584;23.164;2023-05-10T01:53:48;5.10;;;3.30;;
10201;SDS011;5143;42.584;23.164;2023-05-10T01:56:16;3.93;;;3.13;;
10201;SDS011;5143;42.584;23.164;2023-05-10T01:58:46;3.90;;;3.17;;
10201;SDS011;5143;42.584;23.164;2023-05-10T02:01:15;3.23;;;2.90;;
10201;SDS011;5143;42.584;23.164;2023-05-10T02:03:44;3.97;;;3.33;;
10201;SDS011;5143;42.584;23.164;2023-05-10T02:06:11;4.60;;;3.70;;
10201;SDS011;5143;42.584;23.164;2023-05-10T02:08:41;3.30;;;3.00;;
10201;SDS011;5143;42.584;23.164;2023-05-10T02:11:09;4.37;;;3.70;;
10201;SDS011;5143;42.584;23.164;2023-05-10T02:13:39;6.97;;;3.67;;
10201;SDS011;5143;42.584;23.164;2023-05-10T02:16:07;4.10;;;3.70;;
10201;SDS011;5143;42.584;23.164;2023-05-10T02:18:34;3.73;;;3.37;;
10201;SDS011;5143;42.584;23.164;2023-05-10T02:21:03;3.57;;;3.27;;
10201;SDS011;5143;42.584;23.164;2023-05-10T02:23:31;3.60;;;3.30;;
10201;SDS011;5143;42.584;23.164;2023-05-10T02:25:58;3.10;;;2.80;;
10201;SDS011;5143;42.584;23.164;2023-05-10T02:28:26;2.93;;;2.63;;
10201;SDS011;5143;42.584;23.164;2023-05-10T02:30:55;2.57;;;2.37;;
10201;SDS011;5143;42.584;23.164;2023-05-10T02:33:23;3.20;;;2.90;;
10201;SDS011;5143;42.584;23.164;2023-05-10T02:35:51;3.00;;;2.70;;
10201;SDS011;5143;42.584;23.164;2023-05-10T02:38:20;3.03;;;2.73;;
10201;SDS011;5143;42.584;23.164;2023-05-10T02:40:49;3.70;;;2.80;;
10201;SDS011;5143;42.584;23.164;2023-05-10T02:43:17;4.17;;;3.17;;
10201;SDS011;5143;42.584;23.164;2023-05-10T02:45:46;4.37;;;3.67;;
10201;SDS011;5143;42.584;23.164;2023-05-10T02:48:14;5.27;;;3.33;;
10201;SDS011;5143;42.584;23.164;2023-05-10T02:50:41;4.07;;;3.73;;
10201;SDS011;5143;42.584;23.164;2023-05-10T02:53:11;3.90;;;3.60;;
10201;SDS011;5143;42.584;23.164;2023-05-10T02:55:48;4.20;;;3.27;;
10201;SDS011;5143;42.584;23.164;2023-05-10T02:58:17;4.27;;;3.87;;
10201;SDS011;5143;42.584;23.164;2023-05-10T03:00:46;4.30;;;3.90;;
10201;SDS011;5143;42.584;23.164;2023-05-10T03:03:13;5.43;;;3.50;;
10201;SDS011;5143;42.584;23.164;2023-05-10T03:05:39;3.57;;;3.27;;
10201;SDS011;5143;42.584;23.164;2023-05-10T03:08:06;4.43;;;3.90;;
10201;SDS011;5143;42.584;23.164;2023-05-10T03:10:33;4.83;;;3.63;;
10201;SDS011;5143;42.584;23.164;2023-05-10T03:13:10;3.83;;;3.50;;
10201;SDS011;5143;42.584;23.164;2023-05-10T03:15:46;4.70;;;3.90;;
10201;SDS011;5143;42.584;23.164;2023-05-10T03:18:23;4.60;;;4.20;;
10201;SDS011;5143;42.584;23.164;2023-05-10T03:20:56;4.73;;;3.70;;
10201;SDS011;5143;42.584;23.164;2023-05-10T03:23:26;4.30;;;3.90;;
10201;SDS011;5143;42.584;23.164;2023-05-10T03:25:56;4.23;;;3.83;;
10201;SDS011;5143;42.584;23.164;2023-05-10T03:28:25;4.33;;;3.93;;
10201;SDS011;5143;42.584;23.164;2023-05-10T03:30:53;4.07;;;3.77;;
10201;SDS011;5143;42.584;23.164;2023-05-10T03:33:21;5.17;;;4.20;;
10201;SDS011;5143;42.584;23.164;2023-05-10T03:35:48;3.87;;;3.57;;
10201;SDS011;5143;42.584;23.164;2023-05-10T03:38:15;3.80;;;3.47;;
10201;SDS011;5143;42.584;23.164;2023-05-10T03:40:41;4.50;;;3.70;;
10201;SDS011;5143;42.584;23.164;2023-05-10T03:43:08;4.20;;;3.90;;
10201;SDS011;5143;42.584;23.164;2023-05-10T03:45:36;4.23;;;3.83;;
10201;SDS011;5143;42.584;23.164;2023-05-10T03:48:03;4.27;;;3.87;;
10201;SDS011;5143;42.584;23.164;2023-05-10T03:50:30;5.43;;;3.93;;
10201;SDS011;5143;42.584;23.164;2023-05-10T03:52:57;4.53;;;4.13;;
10201;SDS011;5143;42.584;23.164;2023-05-10T03:55:23;8.67;;;4.50;;
10201;SDS011;5143;42.584;23.164;2023-05-10T03:57:50;4.87;;;4.37;;
10201;SDS011;5143;42.584;23.164;2023-05-10T04:00:19;4.50;;;4.20;;
10201;SDS011;5143;42.584;23.164;2023-05-10T04:02:47;4.50;;;4.10;;
10201;SDS011;5143;42.584;23.164;2023-05-10T04:05:14;4.47;;;4.07;;
10201;SDS011;5143;42.584;23.164;2023-05-10T04:07:41;4.57;;;4.17;;
10201;SDS011;5143;42.584;23.164;2023-05-10T04:10:09;5.10;;;4.17;;
10201;SDS011;5143;42.584;23.164;2023-05-10T04:12:36;5.77;;;4.30;;
10201;SDS011;5143;42.584;23.164;2023-05-10T04:15:03;6.73;;;4.30;;
10201;SDS011;5143;42.584;23.164;2023-05-10T04:17:30;5.37;;;3.90;;
10201;SDS011;5143;42.584;23.164;2023-05-10T04:19:58;6.60;;;3.77;;
10201;SDS011;5143;42.584;23.164;2023-05-10T04:22:25;6.80;;;4.10;;
10201;SDS011;5143;42.584;23.164;2023-05-10T04:24:52;3.93;;;3.63;;
10201;SDS011;5143;42.584;23.164;2023-05-10T04:27:19;4.47;;;4.07;;
10201;SDS011;5143;42.584;23.164;2023-05-10T04:29:46;4.67;;;4.17;;
10201;SDS011;5143;42.584;23.164;2023-05-10T04:32:12;4.60;;;4.20;;
10201;SDS011;5143;42.584;23.164;2023-05-10T04:34:41;4.90;;;3.87;;
10201;SDS011;5143;42.584;23.164;2023-05-10T04:37:09;5.73;;;4.20;;
10201;SDS011;5143;42.584;23.164;2023-05-10T04:39:36;4.80;;;4.10;;
10201;SDS011;5143;42.584;23.164;2023-05-10T04:42:02;4.03;;;3.63;;
10201;SDS011;5143;42.584;23.164;2023-05-10T04:44:30;6.10;;;4.00;;
10201;SDS011;5143;42.584;23.164;2023-05-10T04:46:57;6.73;;;4.47;;
10201;SDS011;5143;42.584;23.164;2023-05-10T04:49:24;4.93;;;3.87;;
10201;SDS011;5143;42.584;23.164;2023-05-10T04:51:50;4.20;;;3.80;;
10201;SDS011;5143;42.584;23.164;2023-05-10T04:54:18;4.63;;;4.17;;
10201;SDS011;5143;42.584;23.164;2023-05-10T04:56:45;6.77;;;4.33;;
10201;SDS011;5143;42.584;23.164;2023-05-10T04:59:12;5.77;;;3.87;;
10201;SDS011;5143;42.584;23.164;2023-05-10T05:01:39;4.73;;;4.20;;
10201;SDS011;5143;42.584;23.164;2023-05-10T05:04:06;7.37;;;5.60;;
10201;SDS011;5143;42.584;23.164;2023-05-10T05:06:32;12.30;;;5.13;;
10201;SDS011;5143;42.584;23.164;2023-05-10T05:08:59;9.50;;;4.57;;
10201;SDS011;5143;42.584;23.164;2023-05-10T05:11:27;4.60;;;4.10;;
10201;SDS011;5143;42.584;23.164;2023-05-10T05:13:54;8.37;;;4.33;;
10201;SDS011;5143;42.584;23.164;2023-05-10T05:16:21;5.10;;;3.47;;
10201;SDS011;5143;42.584;23.164;2023-05-10T05:18:47;6.87;;;4.00;;
10201;SDS011;5143;42.584;23.164;2023-05-10T05:21:14;4.73;;;4.27;;
10201;SDS011;5143;42.584;23.164;2023-05-10T05:23:42;4.70;;;4.10;;
10201;SDS011;5143;42.584;23.164;2023-05-10T05:26:09;4.80;;;4.30;;
10201;SDS011;5143;42.584;23.164;2023-05-10T05:28:37;5.20;;;4.53;;
10201;SDS011;5143;42.584;23.164;2023-05-10T05:31:04;6.67;;;4.13;;
10201;SDS011;5143;42.584;23.164;2023-05-10T05:33:32;5.43;;;4.63;;
10201;SDS011;5143;42.584;23.164;2023-05-10T05:36:00;9.97;;;4.20;;
10201;SDS011;5143;42.584;23.164;2023-05-10T05:38:26;5.73;;;5.07;;
10201;SDS011;5143;42.584;23.164;2023-05-10T05:40:53;6.10;;;5.23;;
10201;SDS011;5143;42.584;23.164;2023-05-10T05:43:20;4.47;;;4.00;;
10201;SDS011;5143;42.584;23.164;2023-05-10T05:45:48;5.23;;;4.73;;
10201;SDS011;5143;42.584;23.164;2023-05-10T05:48:15;6.30;;;4.17;;
10201;SDS011;5143;42.584;23.164;2023-05-10T05:50:41;4.73;;;3.97;;
10201;SDS011;5143;42.584;23.164;2023-05-10T05:53:08;6.67;;;4.13;;
10201;SDS011;5143;42.584;23.164;2023-05-10T05:55:35;8.77;;;5.30;;
10201;SDS011;5143;42.584;23.164;2023-05-10T05:58:02;6.77;;;5.37;;
10201;SDS011;5143;42.584;23.164;2023-05-10T06:00:29;5.67;;;5.17;;
10201;SDS011;5143;42.584;23.164;2023-05-10T06:02:57;5.33;;;4.83;;
10201;SDS011;5143;42.584;23.164;2023-05-10T06:05:24;5.60;;;5.07;;
10201;SDS011;5143;42.584;23.164;2023-05-10T06:07:51;5.10;;;4.37;;
10201;SDS011;5143;42.584;23.164;2023-05-10T06:10:17;5.60;;;4.60;;
10201;SDS011;5143;42.584;23.164;2023-05-10T06:12:44;7.43;;;4.60;;
10201;SDS011;5143;42.584;23.164;2023-05-10T06:15:11;4.63;;;4.23;;
10201;SDS011;5143;42.584;23.164;2023-05-10T06:17:38;5.70;;;4.20;;
10201;SDS011;5143;42.584;23.164;2023-05-10T06:20:07;7.17;;;5.27;;
10201;SDS011;5143;42.584;23.164;2023-05-10T06:22:34;4.90;;;4.40;;
10201;SDS011;5143;42.584;23.164;2023-05-10T06:25:01;5.70;;;5.10;;
10201;SDS011;5143;42.584;23.164;2023-05-10T06:27:28;9.63;;;5.60;;
10201;SDS011;5143;42.584;23.164;2023-05-10T06:29:55;5.53;;;5.00;;
10201;SDS011;5143;42.584;23.164;2023-05-10T06:32:21;5.73;;;4.97;;
10201;SDS011;5143;42.584;23.164;2023-05-10T06:34:48;6.57;;;5.03;;
10201;SDS011;5143;42.584;23.164;2023-05-10T06:37:16;7.87;;;5.60;;
10201;SDS011;5143;42.584;23.164;2023-05-10T06:39:43;8.13;;;5.53;;
10201;SDS011;5143;42.584;23.164;2023-05-10T06:42:10;8.83;;;6.10;;
10201;SDS011;5143;42.584;23.164;2023-05-10T06:44:36;6.33;;;5.63;;
10201;SDS011;5143;42.584;23.164;2023-05-10T06:47:03;9.23;;;5.90;;
10201;SDS011;5143;42.584;23.164;2023-05-10T06:49:30;5.20;;;4.70;;
10201;SDS011;5143;42.584;23.164;2023-05-10T06:51:56;5.60;;;5.10;;
10201;SDS011;5143;42.584;23.164;2023-05-10T06:54:24;5.70;;;5.07;;
10201;SDS011;5143;42.584;23.164;2023-05-10T06:56:51;5.80;;;4.60;;
10201;SDS011;5143;42.584;23.164;2023-05-10T06:59:18;7.43;;;5.53;;
10201;SDS011;5143;42.584;23.164;2023-05-10T07:01:46;6.13;;;5.20;;
10201;SDS011;5143;42.584;23.164;2023-05-10T07:04:13;5.63;;;4.57;;
10201;SDS011;5143;42.584;23.164;2023-05-10T07:06:40;7.93;;;4.73;;
10201;SDS011;5143;42.584;23.164;2023-05-10T07:09:06;5.77;;;4.23;;
10201;SDS011;5143;42.584;23.164;2023-05-10T07:11:35;6.73;;;4.83;;
10201;SDS011;5143;42.584;23.164;2023-05-10T07:14:02;5.90;;;4.87;;
10201;SDS011;5143;42.584;23.164;2023-05-10T07:16:29;5.37;;;4.87;;
10201;SDS011;5143;42.584;23.164;2023-05-10T07:18:56;6.87;;;4.50;;
10201;SDS011;5143;42.584;23.164;2023-05-10T07:21:22;6.33;;;5.13;;
10201;SDS011;5143;42.584;23.164;2023-05-10T07:23:50;7.83;;;4.70;;
10201;SDS011;5143;42.584;23.164;2023-05-10T07:26:16;8.97;;;5.57;;
10201;SDS011;5143;42.584;23.164;2023-05-10T07:28:44;5.80;;;5.20;;
10201;SDS011;5143;42.584;23.164;2023-05-10T07:31:12;5.27;;;4.77;;
10201;SDS011;5143;42.584;23.164;2023-05-10T07:33:38;7.57;;;5.10;;
10201;SDS011;5143;42.584;23.164;2023-05-10T07:36:05;6.20;;;5.43;;
10201;SDS011;5143;42.584;23.164;2023-05-10T07:38:32;9.10;;;5.03;;
10201;SDS011;5143;42.584;23.164;2023-05-10T07:40:59;5.33;;;4.83;;
10201;SDS011;5143;42.584;23.164;2023-05-10T07:43:26;4.77;;;4.33;;
10201;SDS011;5143;42.584;23.164;2023-05-10T07:45:54;5.17;;;4.67;;
10201;SDS011;5143;42.584;23.164;2023-05-10T07:48:22;5.00;;;4.50;;
10201;SDS011;5143;42.584;23.164;2023-05-10T07:50:49;8.57;;;4.60;;
10201;SDS011;5143;42.584;23.164;2023-05-10T07:53:16;7.97;;;5.37;;
10201;SDS011;5143;42.584;23.164;2023-05-10T07:55:43;7.13;;;5.00;;
10201;SDS011;5143;42.584;23.164;2023-05-10T07:58:10;8.67;;;5.13;;
10201;SDS011;5143;42.584;23.164;2023-05-10T08:00:37;7.70;;;5.73;;
10201;SDS011;5143;42.584;23.164;2023-05-10T08:03:06;5.03;;;4.43;;
10201;SDS011;5143;42.584;23.164;2023-05-10T08:05:32;6.67;;;5.77;;
10201;SDS011;5143;42.584;23.164;2023-05-10T08:07:59;4.87;;;4.37;;
10201;SDS011;5143;42.584;23.164;2023-05-10T08:10:26;7.37;;;3.73;;
10201;SDS011;5143;42.584;23.164;2023-05-10T08:12:52;7.90;;;5.10;;
10201;SDS011;5143;42.584;23.164;2023-05-10T08:15:19;5.40;;;4.10;;
10201;SDS011;5143;42.584;23.164;2023-05-10T08:17:46;5.13;;;4.33;;
10201;SDS011;5143;42.584;23.164;2023-05-10T08:20:14;6.23;;;5.23;;
10201;SDS011;5143;42.584;23.164;2023-05-10T08:22:42;5.17;;;4.00;;
10201;SDS011;5143;42.584;23.164;2023-05-10T08:25:09;5.27;;;4.40;;
10201;SDS011;5143;42.584;23.164;2023-05-10T08:27:35;4.80;;;4.30;;
10201;SDS011;5143;42.584;23.164;2023-05-10T08:30:02;7.10;;;4.87;;
10201;SDS011;5143;42.584;23.164;2023-05-10T08:32:30;7.00;;;5.07;;
10201;SDS011;5143;42.584;23.164;2023-05-10T08:34:56;8.17;;;4.93;;
10201;SDS011;5143;42.584;23.164;2023-05-10T08:37:25;5.97;;;4.70;;
10201;SDS011;5143;42.584;23.164;2023-05-10T08:39:51;6.40;;;4.53;;
10201;SDS011;5143;42.584;23.164;2023-05-10T08:42:19;7.20;;;5.00;;
10201;SDS011;5143;42.584;23.164;2023-05-10T08:44:49;6.27;;;4.67;;
10201;SDS011;5143;42.584;23.164;2023-05-10T08:47:17;5.40;;;4.70;;
10201;SDS011;5143;42.584;23.164;2023-05-10T08:49:45;6.50;;;5.20;;
10201;SDS011;5143;42.584;23.164;2023-05-10T08:52:14;9.17;;;5.40;;
10201;SDS011;5143;42.584;23.164;2023-05-10T08:54:43;6.30;;;5.60;;
10201;SDS011;5143;42.584;23.164;2023-05-10T08:57:10;5.47;;;4.70;;
10201;SDS011;5143;42.584;23.164;2023-05-10T08:59:37;5.80;;;4.90;;
10201;SDS011;5143;42.584;23.164;2023-05-10T09:02:05;5.70;;;4.57;;
10201;SDS011;5143;42.584;23.164;2023-05-10T09:04:32;7.07;;;5.03;;
10201;SDS011;5143;42.584;23.164;2023-05-10T09:06:59;6.53;;;5.47;;
10201;SDS011;5143;42.584;23.164;2023-05-10T09:09:26;6.73;;;5.40;;
10201;SDS011;5143;42.584;23.164;2023-05-10T09:11:55;6.17;;;5.57;;
10201;SDS011;5143;42.584;23.164;2023-05-10T09:14:23;9.80;;;7.00;;
10201;SDS011;5143;42.584;23.164;2023-05-10T09:16:50;7.00;;;5.57;;
10201;SDS011;5143;42.584;23.164;2023-05-10T09:19:18;11.43;;;5.50;;
10201;SDS011;5143;42.584;23.164;2023-05-10T09:21:45;5.20;;;4.70;;
10201;SDS011;5143;42.584;23.164;2023-05-10T09:24:12;6.03;;;5.40;;
10201;SDS011;5143;42.584;23.164;2023-05-10T09:26:45;6.23;;;5.00;;
10201;SDS011;5143;42.584;23.164;2023-05-10T09:29:14;6.73;;;5.23;;
10201;SDS011;5143;42.584;23.164;2023-05-10T09:31:45;7.50;;;5.23;;
10201;SDS011;5143;42.584;23.164;2023-05-10T09:34:16;7.23;;;5.23;;
10201;SDS011;5143;42.584;23.164;2023-05-10T09:36:50;7.47;;;5.23;;
10201;SDS011;5143;42.584;23.164;2023-05-10T09:39:18;6.60;;;5.70;;
10201;SDS011;5143;42.584;23.164;2023-05-10T09:41:45;7.10;;;5.33;;
10201;SDS011;5143;42.584;23.164;2023-05-10T09:44:17;8.27;;;5.83;;
10201;SDS011;5143;42.584;23.164;2023-05-10T09:46:49;7.33;;;5.33;;
10201;SDS011;5143;42.584;23.164;2023-05-10T09:49:17;6.13;;;4.90;;
10201;SDS011;5143;42.584;23.164;2023-05-10T09:51:44;10.17;;;5.77;;
10201;SDS011;5143;42.584;23.164;2023-05-10T09:54:12;6.90;;;5.50;;
10201;SDS011;5143;42.584;23.164;2023-05-10T09:56:41;6.80;;;5.23;;
10201;SDS011;5143;42.584;23.164;2023-05-10T09:59:09;6.63;;;5.47;;
10201;SDS011;5143;42.584;23.164;2023-05-10T10:01:39;7.77;;;5.50;;
10201;SDS011;5143;42.584;23.164;2023-05-10T10:04:06;6.53;;;5.23;;
10201;SDS011;5143;42.584;23.164;2023-05-10T10:06:36;5.77;;;5.10;;
10201;SDS011;5143;42.584;23.164;2023-05-10T10:09:04;6.30;;;5.10;;
10201;SDS011;5143;42.584;23.164;2023-05-10T10:11:31;6.80;;;5.50;;
10201;SDS011;5143;42.584;23.164;2023-05-10T10:14:00;5.93;;;5.33;;
10201;SDS011;5143;42.584;23.164;2023-05-10T10:16:27;6.70;;;5.23;;
10201;SDS011;5143;42.584;23.164;2023-05-10T10:18:57;5.27;;;4.77;;
10201;SDS011;5143;42.584;23.164;2023-05-10T10:21:24;7.50;;;6.30;;
10201;SDS011;5143;42.584;23.164;2023-05-10T10:23:51;6.57;;;5.63;;
10201;SDS011;5143;42.584;23.164;2023-05-10T10:26:18;6.13;;;5.27;;
10201;SDS011;5143;42.584;23.164;2023-05-10T10:28:47;6.37;;;4.90;;
10201;SDS011;5143;42.584;23.164;2023-05-10T10:31:24;6.23;;;4.97;;
10201;SDS011;5143;42.584;23.164;2023-05-10T10:34:03;8.33;;;6.13;;
10201;SDS011;5143;42.584;23.164;2023-05-10T10:36:33;8.03;;;5.13;;
10201;SDS011;5143;42.584;23.164;2023-05-10T10:39:08;5.73;;;5.17;;
10201;SDS011;5143;42.584;23.164;2023-05-10T10:41:37;7.83;;;5.60;;
10201;SDS011;5143;42.584;23.164;2023-05-10T10:44:33;7.00;;;5.53;;
10201;SDS011;5143;42.584;23.164;2023-05-10T10:47:05;8.33;;;5.93;;
10201;SDS011;5143;42.584;23.164;2023-05-10T10:49:43;7.67;;;5.20;;
10201;SDS011;5143;42.584;23.164;2023-05-10T10:52:21;6.30;;;5.70;;
10201;SDS011;5143;42.584;23.164;2023-05-10T10:54:52;7.80;;;5.40;;
10201;SDS011;5143;42.584;23.164;2023-05-10T10:57:20;5.53;;;4.97;;
10201;SDS011;5143;42.584;23.164;2023-05-10T10:59:47;7.37;;;5.37;;
10201;SDS011;5143;42.584;23.164;2023-05-10T11:02:33;9.30;;;5.37;;
10201;SDS011;5143;42.584;23.164;2023-05-10T11:08:15;4.83;;;3.97;;
10201;SDS011;5143;42.584;23.164;2023-05-10T11:10:49;5.03;;;3.67;;
10201;SDS011;5143;42.584;23.164;2023-05-10T11:13:26;4.37;;;3.97;;
10201;SDS011;5143;42.584;23.164;2023-05-10T11:15:54;9.17;;;5.13;;
10201;SDS011;5143;42.584;23.164;2023-05-10T11:18:23;8.70;;;4.97;;
10201;SDS011;5143;42.584;23.164;2023-05-10T11:20:51;5.87;;;5.20;;
10201;SDS011;5143;42.584;23.164;2023-05-10T11:23:19;4.80;;;4.40;;
10201;SDS011;5143;42.584;23.164;2023-05-10T11:25:47;8.70;;;5.40;;
10201;SDS011;5143;42.584;23.164;2023-05-10T11:28:16;8.03;;;5.00;;
10201;SDS011;5143;42.584;23.164;2023-05-10T11:30:44;16.17;;;5.40;;
10201;SDS011;5143;42.584;23.164;2023-05-10T11:33:14;5.73;;;4.90;;
10201;SDS011;5143;42.584;23.164;2023-05-10T11:35:42;9.03;;;5.07;;
10201;SDS011;5143;42.584;23.164;2023-05-10T11:38:09;8.73;;;5.77;;
10201;SDS011;5143;42.584;23.164;2023-05-10T11:40:39;14.03;;;5.67;;
10201;SDS011;5143;42.584;23.164;2023-05-10T11:43:08;4.50;;;4.07;;
10201;SDS011;5143;42.584;23.164;2023-05-10T11:45:35;6.63;;;4.67;;
10201;SDS011;5143;42.584;23.164;2023-05-10T11:48:02;8.87;;;5.17;;
10201;SDS011;5143;42.584;23.164;2023-05-10T11:50:29;6.03;;;3.80;;
10201;SDS011;5143;42.584;23.164;2023-05-10T11:52:56;6.70;;;4.43;;
10201;SDS011;5143;42.584;23.164;2023-05-10T11:55:24;4.63;;;3.83;;
10201;SDS011;5143;42.584;23.164;2023-05-10T11:57:55;4.83;;;4.00;;
10201;SDS011;5143;42.584;23.164;2023-05-10T12:00:26;8.20;;;4.40;;
10201;SDS011;5143;42.584;23.164;2023-05-10T12:02:52;4.40;;;4.00;;
10201;SDS011;5143;42.584;23.164;2023-05-10T12:05:19;4.97;;;4.00;;
10201;SDS011;5143;42.584;23.164;2023-05-10T12:07:46;4.73;;;4.23;;
10201;SDS011;5143;42.584;23.164;2023-05-10T12:10:13;6.70;;;4.57;;
10201;SDS011;5143;42.584;23.164;2023-05-10T12:12:41;5.37;;;4.20;;
10201;SDS011;5143;42.584;23.164;2023-05-10T12:15:16;9.13;;;4.83;;
10201;SDS011;5143;42.584;23.164;2023-05-10T12:17:44;6.07;;;4.40;;
10201;SDS011;5143;42.584;23.164;2023-05-10T12:20:15;5.63;;;4.63;;
10201;SDS011;5143;42.584;23.164;2023-05-10T12:22:43;6.00;;;4.60;;
10201;SDS011;5143;42.584;23.164;2023-05-10T12:25:11;4.73;;;4.03;;
10201;SDS011;5143;42.584;23.164;2023-05-10T12:27:38;7.50;;;4.60;;
10201;SDS011;5143;42.584;23.164;2023-05-10T12:30:05;6.97;;;4.60;;
10201;SDS011;5143;42.584;23.164;2023-05-10T12:32:40;19.87;;;5.73;;
10201;SDS011;5143;42.584;23.164;2023-05-10T12:35:08;5.67;;;4.47;;
10201;SDS011;5143;42.584;23.164;2023-05-10T12:37:35;5.57;;;4.80;;
10201;SDS011;5143;42.584;23.164;2023-05-10T12:40:05;5.60;;;4.73;;
10201;SDS011;5143;42.584;23.164;2023-05-10T12:42:34;5.30;;;4.20;;
10201;SDS011;5143;42.584;23.164;2023-05-10T12:45:01;6.03;;;4.30;;
10201;SDS011;5143;42.584;23.164;2023-05-10T12:47:29;7.13;;;4.60;;
10201;SDS011;5143;42.584;23.164;2023-05-10T12:49:57;5.77;;;4.10;;
10201;SDS011;5143;42.584;23.164;2023-05-10T12:52:25;4.50;;;4.10;;
10201;SDS011;5143;42.584;23.164;2023-05-10T12:54:52;12.97;;;5.10;;
10201;SDS011;5143;42.584;23.164;2023-05-10T12:57:19;7.93;;;4.50;;
10201;SDS011;5143;42.584;23.164;2023-05-10T12:59:46;6.77;;;4.90;;
10201;SDS011;5143;42.584;23.164;2023-05-10T13:02:13;6.17;;;4.40;;
10201;SDS011;5143;42.584;23.164;2023-05-10T13:04:40;6.03;;;4.20;;
10201;SDS011;5143;42.584;23.164;2023-05-10T13:07:08;10.10;;;4.60;;
10201;SDS011;5143;42.584;23.164;2023-05-10T13:09:36;5.70;;;4.57;;
10201;SDS011;5143;42.584;23.164;2023-05-10T13:12:02;7.73;;;4.40;;
10201;SDS011;5143;42.584;23.164;2023-05-10T13:14:29;6.47;;;3.77;;
10201;SDS011;5143;42.584;23.164;2023-05-10T13:16:56;4.10;;;3.70;;
10201;SDS011;5143;42.584;23.164;2023-05-10T13:19:23;6.57;;;4.30;;
10201;SDS011;5143;42.584;23.164;2023-05-10T13:21:50;4.47;;;4.07;;
10201;SDS011;5143;42.584;23.164;2023-05-10T13:24:18;9.70;;;4.47;;
10201;SDS011;5143;42.584;23.164;2023-05-10T13:26:45;9.43;;;3.90;;
10201;SDS011;5143;42.584;23.164;2023-05-10T13:29:11;4.07;;;3.67;;
10201;SDS011;5143;42.584;23.164;2023-05-10T13:31:38;3.90;;;3.60;;
10201;SDS011;5143;42.584;23.164;2023-05-10T13:34:05;6.27;;;3.90;;
10201;SDS011;5143;42.584;23.164;2023-05-10T13:36:32;4.30;;;3.90;;
10201;SDS011;5143;42.584;23.164;2023-05-10T13:38:58;5.50;;;4.30;;
10201;SDS011;5143;42.584;23.164;2023-05-10T13:41:28;5.30;;;4.80;;
10201;SDS011;5143;42.584;23.164;2023-05-10T13:43:55;10.37;;;4.83;;
10201;SDS011;5143;42.584;23.164;2023-05-10T13:46:22;5.67;;;4.70;;
10201;SDS011;5143;42.584;23.164;2023-05-10T13:48:48;11.40;;;5.17;;
10201;SDS011;5143;42.584;23.164;2023-05-10T13:51:15;6.10;;;5.50;;
10201;SDS011;5143;42.584;23.164;2023-05-10T13:53:42;6.67;;;5.97;;
10201;SDS011;5143;42.584;23.164;2023-05-10T13:56:09;8.57;;;5.90;;
10201;SDS011;5143;42.584;23.164;2023-05-10T13:58:37;7.40;;;6.30;;
10201;SDS011;5143;42.584;23.164;2023-05-10T14:01:03;16.47;;;7.00;;
10201;SDS011;5143;42.584;23.164;2023-05-10T14:03:30;8.80;;;6.80;;
10201;SDS011;5143;42.584;23.164;2023-05-10T14:05:57;8.20;;;6.27;;
10201;SDS011;5143;42.584;23.164;2023-05-10T14:08:24;12.53;;;6.50;;
10201;SDS011;5143;42.584;23.164;2023-05-10T14:10:52;10.53;;;7.20;;
10201;SDS011;5143;42.584;23.164;2023-05-10T14:13:21;11.30;;;6.80;;
10201;SDS011;5143;42.584;23.164;2023-05-10T14:15:49;11.37;;;7.40;;
10201;SDS011;5143;42.584;23.164;2023-05-10T14:18:16;12.33;;;8.47;;
10201;SDS011;5143;42.584;23.164;2023-05-10T14:20:42;11.57;;;7.60;;
10201;SDS011;5143;42.584;23.164;2023-05-10T14:23:09;7.40;;;6.53;;
10201;SDS011;5143;42.584;23.164;2023-05-10T14:25:36;8.77;;;6.27;;
10201;SDS011;5143;42.584;23.164;2023-05-10T14:28:04;8.53;;;6.77;;
10201;SDS011;5143;42.584;23.164;2023-05-10T14:30:31;7.97;;;5.97;;
10201;SDS011;5143;42.584;23.164;2023-05-10T14:33:01;7.13;;;5.50;;
10201;SDS011;5143;42.584;23.164;2023-05-10T14:35:28;7.53;;;5.00;;
10201;SDS011;5143;42.584;23.164;2023-05-10T14:37:56;8.37;;;5.53;;
10201;SDS011;5143;42.584;23.164;2023-05-10T14:40:23;8.13;;;5.60;;
10201;SDS011;5143;42.584;23.164;2023-05-10T14:42:50;10.10;;;5.23;;
10201;SDS011;5143;42.584;23.164;2023-05-10T14:45:18;10.87;;;5.63;;
10201;SDS011;5143;42.584;23.164;2023-05-10T14:47:44;6.73;;;5.77;;
10201;SDS011;5143;42.584;23.164;2023-05-10T14:50:12;7.67;;;4.93;;
10201;SDS011;5143;42.584;23.164;2023-05-10T14:52:39;6.43;;;5.57;;
10201;SDS011;5143;42.584;23.164;2023-05-10T14:55:06;6.50;;;5.80;;
10201;SDS011;5143;42.584;23.164;2023-05-10T14:57:34;10.33;;;6.60;;
10201;SDS011;5143;42.584;23.164;2023-05-10T15:00:01;8.40;;;6.80;;
10201;SDS011;5143;42.584;23.164;2023-05-10T15:02:28;10.67;;;5.50;;